sensor_id;sensor_type;location;lat;lon;timestamp;P1;durP1;ratioP1;P2;durP2;ratioP2
63346;SDS011;49472;49.880;8.650;2023-04-25T00:00:18;9.30;;;8.60;;
63346;SDS011;49472;49.880;8.650;2023-04-25T00:02:43;11.60;;;10.60;;
63346;SDS011;49472;49.880;8.650;2023-04-25T00:05:08;14.23;;;10.40;;
63346;SDS011;49472;49.880;8.650;2023-04-25T00:07:34;12.63;;;11.43;;
63346;SDS011;49472;49.880;8.650;2023-04-25T00:09:59;12.20;;;11.07;;
63346;SDS011;49472;49.880;8.650;2023-04-25T00:12:25;13.33;;;11.03;;
63346;SDS011;49472;49.880;8.650;2023-04-25T00:14:53;12.03;;;10.83;;
63346;SDS011;49472;49.880;8.650;2023-04-25T00:17:18;12.33;;;11.23;;
63346;SDS011;49472;49.880;8.650;2023-04-25T00:19:44;14.57;;;11.30;;
63346;SDS011;49472;49.880;8.650;2023-04-25T00:22:11;13.57;;;12.20;;
63346;SDS011;49472;49.880;8.650;2023-04-25T00:24:36;14.03;;;12.73;;
63346;SDS011;49472;49.880;8.650;2023-04-25T00:27:02;13.03;;;11.90;;
63346;SDS011;49472;49.880;8.650;2023-04-25T00:29:28;13.00;;;11.70;;
63346;SDS011;49472;49.880;8.650;2023-04-25T00:31:53;13.20;;;12.00;;
63346;SDS011;49472;49.880;8.650;2023-04-25T00:34:18;16.23;;;12.33;;
63346;SDS011;49472;49.880;8.650;2023-04-25T00:36:44;13.20;;;12.10;;
63346;SDS011;49472;49.880;8.650;2023-04-25T00:39:09;13.60;;;12.40;;
63346;SDS011;49472;49.880;8.650;2023-04-25T00:41:35;14.03;;;11.33;;
63346;SDS011;49472;49.880;8.650;2023-04-25T00:44:00;14.43;;;12.90;;
63346;SDS011;49472;49.880;8.650;2023-04-25T00:46:27;13.73;;;12.40;;
63346;SDS011;49472;49.880;8.650;2023-04-25T00:48:53;13.80;;;12.40;;
63346;SDS011;49472;49.880;8.650;2023-04-25T00:51:21;12.53;;;11.23;;
63346;SDS011;49472;49.880;8.650;2023-04-25T00:53:48;13.80;;;12.47;;
63346;SDS011;49472;49.880;8.650;2023-04-25T00:56:15;13.43;;;12.13;;
63346;SDS011;49472;49.880;8.650;2023-04-25T00:58:41;14.07;;;12.87;;
63346;SDS011;49472;49.880;8.650;2023-04-25T01:01:08;14.43;;;13.13;;
63346;SDS011;49472;49.880;8.650;2023-04-25T01:03:34;14.90;;;13.23;;
63346;SDS011;49472;49.880;8.650;2023-04-25T01:06:05;15.53;;;14.10;;
63346;SDS011;49472;49.880;8.650;2023-04-25T01:08:34;18.90;;;15.23;;
63346;SDS011;49472;49.880;8.650;2023-04-25T01:11:00;16.43;;;14.93;;
63346;SDS011;49472;49.880;8.650;2023-04-25T01:13:25;15.77;;;14.33;;
63346;SDS011;49472;49.880;8.650;2023-04-25T01:15:51;15.57;;;14.07;;
63346;SDS011;49472;49.880;8.650;2023-04-25T01:18:17;15.93;;;14.53;;
63346;SDS011;49472;49.880;8.650;2023-04-25T01:20:45;16.20;;;14.70;;
63346;SDS011;49472;49.880;8.650;2023-04-25T01:23:11;15.40;;;14.00;;
63346;SDS011;49472;49.880;8.650;2023-04-25T01:25:37;16.33;;;14.50;;
63346;SDS011;49472;49.880;8.650;2023-04-25T01:28:03;16.33;;;14.83;;
63346;SDS011;49472;49.880;8.650;2023-04-25T01:30:29;15.23;;;13.70;;
63346;SDS011;49472;49.880;8.650;2023-04-25T01:32:55;20.23;;;14.67;;
63346;SDS011;49472;49.880;8.650;2023-04-25T01:35:21;17.07;;;15.43;;
63346;SDS011;49472;49.880;8.650;2023-04-25T01:37:48;16.10;;;14.70;;
63346;SDS011;49472;49.880;8.650;2023-04-25T01:40:14;17.93;;;15.50;;
63346;SDS011;49472;49.880;8.650;2023-04-25T01:42:41;16.87;;;15.00;;
63346;SDS011;49472;49.880;8.650;2023-04-25T01:45:08;16.43;;;14.73;;
63346;SDS011;49472;49.880;8.650;2023-04-25T01:47:35;16.40;;;15.07;;
63346;SDS011;49472;49.880;8.650;2023-04-25T01:50:02;16.63;;;15.13;;
63346;SDS011;49472;49.880;8.650;2023-04-25T01:52:28;16.40;;;14.90;;
63346;SDS011;49472;49.880;8.650;2023-04-25T01:54:53;16.00;;;14.70;;
63346;SDS011;49472;49.880;8.650;2023-04-25T01:57:19;16.80;;;15.20;;
63346;SDS011;49472;49.880;8.650;2023-04-25T01:59:45;17.63;;;14.60;;
63346;SDS011;49472;49.880;8.650;2023-04-25T02:02:11;17.00;;;15.30;;
63346;SDS011;49472;49.880;8.650;2023-04-25T02:04:36;16.83;;;15.33;;
63346;SDS011;49472;49.880;8.650;2023-04-25T02:07:02;15.50;;;14.00;;
63346;SDS011;49472;49.880;8.650;2023-04-25T02:09:28;16.33;;;14.77;;
63346;SDS011;49472;49.880;8.650;2023-04-25T02:11:53;15.83;;;14.43;;
63346;SDS011;49472;49.880;8.650;2023-04-25T02:14:19;16.17;;;14.73;;
63346;SDS011;49472;49.880;8.650;2023-04-25T02:16:44;15.67;;;14.17;;
63346;SDS011;49472;49.880;8.650;2023-04-25T02:19:11;15.87;;;14.47;;
63346;SDS011;49472;49.880;8.650;2023-04-25T02:21:36;16.77;;;15.17;;
63346;SDS011;49472;49.880;8.650;2023-04-25T02:24:02;18.30;;;14.40;;
63346;SDS011;49472;49.880;8.650;2023-04-25T02:26:28;17.00;;;15.47;;
63346;SDS011;49472;49.880;8.650;2023-04-25T02:28:53;15.63;;;14.07;;
63346;SDS011;49472;49.880;8.650;2023-04-25T02:31:19;21.60;;;15.00;;
63346;SDS011;49472;49.880;8.650;2023-04-25T02:33:44;17.40;;;15.60;;
63346;SDS011;49472;49.880;8.650;2023-04-25T02:36:09;19.00;;;17.30;;
63346;SDS011;49472;49.880;8.650;2023-04-25T02:38:35;16.97;;;15.40;;
63346;SDS011;49472;49.880;8.650;2023-04-25T02:41:00;23.30;;;16.90;;
63346;SDS011;49472;49.880;8.650;2023-04-25T02:43:25;17.60;;;15.90;;
63346;SDS011;49472;49.880;8.650;2023-04-25T02:45:51;18.13;;;16.53;;
63346;SDS011;49472;49.880;8.650;2023-04-25T02:48:16;18.63;;;15.93;;
63346;SDS011;49472;49.880;8.650;2023-04-25T02:50:41;17.40;;;15.80;;
63346;SDS011;49472;49.880;8.650;2023-04-25T02:53:07;16.63;;;14.93;;
63346;SDS011;49472;49.880;8.650;2023-04-25T02:55:32;17.40;;;15.70;;
63346;SDS011;49472;49.880;8.650;2023-04-25T02:57:58;17.07;;;15.47;;
63346;SDS011;49472;49.880;8.650;2023-04-25T03:00:23;17.10;;;15.50;;
63346;SDS011;49472;49.880;8.650;2023-04-25T03:02:49;17.80;;;16.00;;
63346;SDS011;49472;49.880;8.650;2023-04-25T03:05:14;19.77;;;17.23;;
63346;SDS011;49472;49.880;8.650;2023-04-25T03:07:39;18.03;;;16.30;;
63346;SDS011;49472;49.880;8.650;2023-04-25T03:10:06;18.73;;;16.93;;
63346;SDS011;49472;49.880;8.650;2023-04-25T03:12:32;17.33;;;15.73;;
63346;SDS011;49472;49.880;8.650;2023-04-25T03:14:57;20.13;;;18.03;;
63346;SDS011;49472;49.880;8.650;2023-04-25T03:17:23;18.63;;;16.37;;
63346;SDS011;49472;49.880;8.650;2023-04-25T03:19:48;17.87;;;16.10;;
63346;SDS011;49472;49.880;8.650;2023-04-25T03:22:14;19.87;;;17.77;;
63346;SDS011;49472;49.880;8.650;2023-04-25T03:24:39;21.87;;;17.77;;
63346;SDS011;49472;49.880;8.650;2023-04-25T03:27:05;19.83;;;17.83;;
63346;SDS011;49472;49.880;8.650;2023-04-25T03:29:30;21.10;;;18.73;;
63346;SDS011;49472;49.880;8.650;2023-04-25T03:31:56;18.90;;;17.10;;
63346;SDS011;49472;49.880;8.650;2023-04-25T03:34:21;19.93;;;17.90;;
63346;SDS011;49472;49.880;8.650;2023-04-25T03:36:46;18.87;;;16.97;;
63346;SDS011;49472;49.880;8.650;2023-04-25T03:39:12;21.93;;;19.47;;
63346;SDS011;49472;49.880;8.650;2023-04-25T03:41:37;18.60;;;16.60;;
63346;SDS011;49472;49.880;8.650;2023-04-25T03:44:03;19.47;;;17.57;;
63346;SDS011;49472;49.880;8.650;2023-04-25T03:46:28;18.43;;;16.37;;
63346;SDS011;49472;49.880;8.650;2023-04-25T03:48:55;23.70;;;18.83;;
63346;SDS011;49472;49.880;8.650;2023-04-25T03:51:21;28.07;;;17.53;;
63346;SDS011;49472;49.880;8.650;2023-04-25T03:53:46;20.67;;;18.47;;
63346;SDS011;49472;49.880;8.650;2023-04-25T03:56:12;19.90;;;17.80;;
63346;SDS011;49472;49.880;8.650;2023-04-25T03:58:37;18.50;;;16.77;;
63346;SDS011;49472;49.880;8.650;2023-04-25T04:01:02;21.77;;;18.20;;
63346;SDS011;49472;49.880;8.650;2023-04-25T04:03:32;19.20;;;17.20;;
63346;SDS011;49472;49.880;8.650;2023-04-25T04:05:58;20.30;;;18.10;;
63346;SDS011;49472;49.880;8.650;2023-04-25T04:08:24;19.83;;;17.77;;
63346;SDS011;49472;49.880;8.650;2023-04-25T04:10:49;23.37;;;18.17;;
63346;SDS011;49472;49.880;8.650;2023-04-25T04:13:15;19.50;;;17.60;;
63346;SDS011;49472;49.880;8.650;2023-04-25T04:15:40;22.17;;;18.20;;
63346;SDS011;49472;49.880;8.650;2023-04-25T04:18:05;20.80;;;18.70;;
63346;SDS011;49472;49.880;8.650;2023-04-25T04:20:31;21.47;;;19.27;;
63346;SDS011;49472;49.880;8.650;2023-04-25T04:22:56;19.53;;;17.63;;
63346;SDS011;49472;49.880;8.650;2023-04-25T04:25:22;20.27;;;18.10;;
63346;SDS011;49472;49.880;8.650;2023-04-25T04:27:49;19.23;;;17.37;;
63346;SDS011;49472;49.880;8.650;2023-04-25T04:30:16;19.30;;;17.30;;
63346;SDS011;49472;49.880;8.650;2023-04-25T04:32:42;20.60;;;18.60;;
63346;SDS011;49472;49.880;8.650;2023-04-25T04:35:08;21.07;;;18.90;;
63346;SDS011;49472;49.880;8.650;2023-04-25T04:37:33;21.60;;;18.40;;
63346;SDS011;49472;49.880;8.650;2023-04-25T04:39:59;24.93;;;20.47;;
63346;SDS011;49472;49.880;8.650;2023-04-25T04:42:24;25.50;;;19.83;;
63346;SDS011;49472;49.880;8.650;2023-04-25T04:44:50;21.07;;;18.80;;
63346;SDS011;49472;49.880;8.650;2023-04-25T04:47:17;24.00;;;19.83;;
63346;SDS011;49472;49.880;8.650;2023-04-25T04:49:42;21.50;;;18.80;;
63346;SDS011;49472;49.880;8.650;2023-04-25T04:52:07;25.30;;;19.93;;
63346;SDS011;49472;49.880;8.650;2023-04-25T04:54:33;23.90;;;20.33;;
63346;SDS011;49472;49.880;8.650;2023-04-25T04:57:00;26.07;;;21.70;;
63346;SDS011;49472;49.880;8.650;2023-04-25T04:59:25;24.03;;;19.40;;
63346;SDS011;49472;49.880;8.650;2023-04-25T05:01:52;26.10;;;20.43;;
63346;SDS011;49472;49.880;8.650;2023-04-25T05:04:17;21.83;;;19.63;;
63346;SDS011;49472;49.880;8.650;2023-04-25T05:06:43;26.97;;;19.77;;
63346;SDS011;49472;49.880;8.650;2023-04-25T05:09:09;24.90;;;18.47;;
63346;SDS011;49472;49.880;8.650;2023-04-25T05:11:34;23.53;;;19.57;;
63346;SDS011;49472;49.880;8.650;2023-04-25T05:13:59;25.50;;;18.77;;
63346;SDS011;49472;49.880;8.650;2023-04-25T05:16:25;20.90;;;18.70;;
63346;SDS011;49472;49.880;8.650;2023-04-25T05:18:50;27.20;;;18.73;;
63346;SDS011;49472;49.880;8.650;2023-04-25T05:21:15;22.47;;;17.57;;
63346;SDS011;49472;49.880;8.650;2023-04-25T05:23:41;32.43;;;18.93;;
63346;SDS011;49472;49.880;8.650;2023-04-25T05:26:06;26.33;;;17.90;;
63346;SDS011;49472;49.880;8.650;2023-04-25T05:28:38;20.60;;;16.97;;
63346;SDS011;49472;49.880;8.650;2023-04-25T05:31:03;30.30;;;18.00;;
63346;SDS011;49472;49.880;8.650;2023-04-25T05:33:29;24.63;;;19.40;;
63346;SDS011;49472;49.880;8.650;2023-04-25T05:35:55;24.53;;;19.27;;
63346;SDS011;49472;49.880;8.650;2023-04-25T05:38:20;25.70;;;18.27;;
63346;SDS011;49472;49.880;8.650;2023-04-25T05:40:45;23.90;;;17.27;;
63346;SDS011;49472;49.880;8.650;2023-04-25T05:43:11;29.70;;;18.23;;
63346;SDS011;49472;49.880;8.650;2023-04-25T05:45:36;28.00;;;17.67;;
63346;SDS011;49472;49.880;8.650;2023-04-25T05:48:02;20.70;;;18.03;;
63346;SDS011;49472;49.880;8.650;2023-04-25T05:50:28;21.27;;;17.97;;
63346;SDS011;49472;49.880;8.650;2023-04-25T05:52:53;31.77;;;18.90;;
63346;SDS011;49472;49.880;8.650;2023-04-25T05:55:18;34.57;;;18.97;;
63346;SDS011;49472;49.880;8.650;2023-04-25T05:57:43;21.07;;;18.40;;
63346;SDS011;49472;49.880;8.650;2023-04-25T06:00:11;29.77;;;18.73;;
63346;SDS011;49472;49.880;8.650;2023-04-25T06:02:37;29.20;;;18.30;;
63346;SDS011;49472;49.880;8.650;2023-04-25T06:05:02;25.07;;;18.37;;
63346;SDS011;49472;49.880;8.650;2023-04-25T06:07:28;35.23;;;17.90;;
63346;SDS011;49472;49.880;8.650;2023-04-25T06:09:55;29.53;;;20.70;;
63346;SDS011;49472;49.880;8.650;2023-04-25T06:12:20;26.17;;;18.93;;
63346;SDS011;49472;49.880;8.650;2023-04-25T06:14:45;26.13;;;19.17;;
63346;SDS011;49472;49.880;8.650;2023-04-25T06:17:11;30.13;;;19.27;;
63346;SDS011;49472;49.880;8.650;2023-04-25T06:19:36;23.07;;;18.47;;
63346;SDS011;49472;49.880;8.650;2023-04-25T06:22:01;20.57;;;16.70;;
63346;SDS011;49472;49.880;8.650;2023-04-25T06:24:28;20.53;;;18.07;;
63346;SDS011;49472;49.880;8.650;2023-04-25T06:26:54;22.07;;;17.50;;
63346;SDS011;49472;49.880;8.650;2023-04-25T06:29:19;18.37;;;16.07;;
63346;SDS011;49472;49.880;8.650;2023-04-25T06:31:45;17.53;;;15.07;;
63346;SDS011;49472;49.880;8.650;2023-04-25T06:34:10;17.27;;;15.67;;
63346;SDS011;49472;49.880;8.650;2023-04-25T06:36:36;19.70;;;16.70;;
63346;SDS011;49472;49.880;8.650;2023-04-25T06:39:01;19.87;;;16.43;;
63346;SDS011;49472;49.880;8.650;2023-04-25T06:41:27;21.30;;;16.30;;
63346;SDS011;49472;49.880;8.650;2023-04-25T06:43:52;25.67;;;17.57;;
63346;SDS011;49472;49.880;8.650;2023-04-25T06:46:17;19.60;;;16.80;;
63346;SDS011;49472;49.880;8.650;2023-04-25T06:48:43;22.80;;;16.90;;
63346;SDS011;49472;49.880;8.650;2023-04-25T06:51:08;20.47;;;17.87;;
63346;SDS011;49472;49.880;8.650;2023-04-25T06:53:34;17.90;;;16.10;;
63346;SDS011;49472;49.880;8.650;2023-04-25T06:55:59;18.97;;;17.00;;
63346;SDS011;49472;49.880;8.650;2023-04-25T06:58:25;20.80;;;17.77;;
63346;SDS011;49472;49.880;8.650;2023-04-25T07:00:51;20.03;;;17.13;;
63346;SDS011;49472;49.880;8.650;2023-04-25T07:03:16;19.87;;;16.93;;
63346;SDS011;49472;49.880;8.650;2023-04-25T07:05:42;21.20;;;16.13;;
63346;SDS011;49472;49.880;8.650;2023-04-25T07:08:07;19.10;;;16.17;;
63346;SDS011;49472;49.880;8.650;2023-04-25T07:10:32;18.63;;;15.50;;
63346;SDS011;49472;49.880;8.650;2023-04-25T07:12:58;25.63;;;17.97;;
63346;SDS011;49472;49.880;8.650;2023-04-25T07:15:23;24.70;;;17.53;;
63346;SDS011;49472;49.880;8.650;2023-04-25T07:17:48;22.60;;;17.50;;
63346;SDS011;49472;49.880;8.650;2023-04-25T07:20:14;23.70;;;16.53;;
63346;SDS011;49472;49.880;8.650;2023-04-25T07:22:41;21.67;;;17.57;;
63346;SDS011;49472;49.880;8.650;2023-04-25T07:25:06;24.93;;;17.60;;
63346;SDS011;49472;49.880;8.650;2023-04-25T07:27:33;17.90;;;16.10;;
63346;SDS011;49472;49.880;8.650;2023-04-25T07:29:59;25.90;;;17.23;;
63346;SDS011;49472;49.880;8.650;2023-04-25T07:32:25;25.70;;;17.57;;
63346;SDS011;49472;49.880;8.650;2023-04-25T07:34:51;24.73;;;18.13;;
63346;SDS011;49472;49.880;8.650;2023-04-25T07:37:16;19.57;;;16.70;;
63346;SDS011;49472;49.880;8.650;2023-04-25T07:39:43;18.67;;;16.70;;
63346;SDS011;49472;49.880;8.650;2023-04-25T07:42:10;27.23;;;17.60;;
63346;SDS011;49472;49.880;8.650;2023-04-25T07:44:36;19.00;;;16.67;;
63346;SDS011;49472;49.880;8.650;2023-04-25T07:47:04;20.13;;;16.80;;
63346;SDS011;49472;49.880;8.650;2023-04-25T07:49:32;26.13;;;21.10;;
63346;SDS011;49472;49.880;8.650;2023-04-25T07:51:58;20.40;;;17.50;;
63346;SDS011;49472;49.880;8.650;2023-04-25T07:54:24;18.90;;;16.60;;
63346;SDS011;49472;49.880;8.650;2023-04-25T07:56:50;28.27;;;18.20;;
63346;SDS011;49472;49.880;8.650;2023-04-25T07:59:15;19.50;;;17.47;;
63346;SDS011;49472;49.880;8.650;2023-04-25T08:01:40;21.53;;;16.63;;
63346;SDS011;49472;49.880;8.650;2023-04-25T08:04:06;17.07;;;15.20;;
63346;SDS011;49472;49.880;8.650;2023-04-25T08:06:31;17.90;;;16.00;;
63346;SDS011;49472;49.880;8.650;2023-04-25T08:08:56;19.53;;;15.10;;
63346;SDS011;49472;49.880;8.650;2023-04-25T08:11:22;17.10;;;15.30;;
63346;SDS011;49472;49.880;8.650;2023-04-25T08:13:47;20.37;;;14.80;;
63346;SDS011;49472;49.880;8.650;2023-04-25T08:16:12;16.97;;;15.27;;
63346;SDS011;49472;49.880;8.650;2023-04-25T08:18:37;16.70;;;15.13;;
63346;SDS011;49472;49.880;8.650;2023-04-25T08:21:03;17.03;;;14.87;;
63346;SDS011;49472;49.880;8.650;2023-04-25T08:23:28;14.80;;;13.60;;
63346;SDS011;49472;49.880;8.650;2023-04-25T08:25:54;16.27;;;14.43;;
63346;SDS011;49472;49.880;8.650;2023-04-25T08:28:19;14.83;;;13.57;;
63346;SDS011;49472;49.880;8.650;2023-04-25T08:30:44;22.83;;;15.20;;
63346;SDS011;49472;49.880;8.650;2023-04-25T08:33:10;15.00;;;13.57;;
63346;SDS011;49472;49.880;8.650;2023-04-25T08:35:36;16.10;;;14.63;;
63346;SDS011;49472;49.880;8.650;2023-04-25T08:38:01;15.80;;;14.50;;
63346;SDS011;49472;49.880;8.650;2023-04-25T08:40:27;15.50;;;14.10;;
63346;SDS011;49472;49.880;8.650;2023-04-25T08:42:55;19.33;;;15.23;;
63346;SDS011;49472;49.880;8.650;2023-04-25T08:45:22;15.40;;;13.93;;
63346;SDS011;49472;49.880;8.650;2023-04-25T08:47:47;15.20;;;13.97;;
63346;SDS011;49472;49.880;8.650;2023-04-25T08:50:16;15.10;;;13.87;;
63346;SDS011;49472;49.880;8.650;2023-04-25T08:52:44;14.87;;;13.67;;
63346;SDS011;49472;49.880;8.650;2023-04-25T08:55:14;15.60;;;14.00;;
63346;SDS011;49472;49.880;8.650;2023-04-25T08:57:41;15.57;;;14.10;;
63346;SDS011;49472;49.880;8.650;2023-04-25T09:00:11;16.27;;;14.67;;
63346;SDS011;49472;49.880;8.650;2023-04-25T09:02:38;15.93;;;14.33;;
63346;SDS011;49472;49.880;8.650;2023-04-25T09:05:04;21.90;;;15.37;;
63346;SDS011;49472;49.880;8.650;2023-04-25T09:07:31;23.10;;;15.10;;
63346;SDS011;49472;49.880;8.650;2023-04-25T09:09:56;16.53;;;14.93;;
63346;SDS011;49472;49.880;8.650;2023-04-25T09:12:24;15.77;;;14.23;;
63346;SDS011;49472;49.880;8.650;2023-04-25T09:17:31;15.73;;;13.87;;
63346;SDS011;49472;49.880;8.650;2023-04-25T09:20:09;16.07;;;14.43;;
63346;SDS011;49472;49.880;8.650;2023-04-25T09:22:37;15.00;;;13.50;;
63346;SDS011;49472;49.880;8.650;2023-04-25T09:25:12;16.50;;;14.80;;
63346;SDS011;49472;49.880;8.650;2023-04-25T09:27:51;14.97;;;13.83;;
63346;SDS011;49472;49.880;8.650;2023-04-25T09:30:31;15.50;;;13.87;;
63346;SDS011;49472;49.880;8.650;2023-04-25T09:32:57;14.67;;;13.43;;
63346;SDS011;49472;49.880;8.650;2023-04-25T09:35:30;15.93;;;14.40;;
63346;SDS011;49472;49.880;8.650;2023-04-25T09:38:01;14.97;;;13.87;;
63346;SDS011;49472;49.880;8.650;2023-04-25T09:40:26;14.03;;;13.10;;
63346;SDS011;49472;49.880;8.650;2023-04-25T09:42:51;15.60;;;14.30;;
63346;SDS011;49472;49.880;8.650;2023-04-25T09:45:17;15.33;;;13.93;;
63346;SDS011;49472;49.880;8.650;2023-04-25T09:47:42;15.90;;;14.70;;
63346;SDS011;49472;49.880;8.650;2023-04-25T09:50:14;18.00;;;14.73;;
63346;SDS011;49472;49.880;8.650;2023-04-25T09:52:41;15.10;;;13.90;;
63346;SDS011;49472;49.880;8.650;2023-04-25T09:55:06;16.13;;;14.67;;
63346;SDS011;49472;49.880;8.650;2023-04-25T09:57:32;16.27;;;14.87;;
63346;SDS011;49472;49.880;8.650;2023-04-25T09:59:58;15.60;;;14.30;;
63346;SDS011;49472;49.880;8.650;2023-04-25T10:02:26;16.90;;;15.30;;
63346;SDS011;49472;49.880;8.650;2023-04-25T10:04:53;18.30;;;14.90;;
63346;SDS011;49472;49.880;8.650;2023-04-25T10:07:20;16.30;;;14.70;;
63346;SDS011;49472;49.880;8.650;2023-04-25T10:09:50;15.57;;;14.37;;
63346;SDS011;49472;49.880;8.650;2023-04-25T10:12:28;15.77;;;14.17;;
63346;SDS011;49472;49.880;8.650;2023-04-25T10:14:56;16.27;;;14.80;;
63346;SDS011;49472;49.880;8.650;2023-04-25T10:17:23;16.97;;;15.40;;
63346;SDS011;49472;49.880;8.650;2023-04-25T10:19:49;14.70;;;13.63;;
63346;SDS011;49472;49.880;8.650;2023-04-25T10:22:35;15.90;;;14.50;;
63346;SDS011;49472;49.880;8.650;2023-04-25T10:25:02;16.10;;;14.47;;
63346;SDS011;49472;49.880;8.650;2023-04-25T10:27:29;19.83;;;14.90;;
63346;SDS011;49472;49.880;8.650;2023-04-25T10:30:05;15.83;;;14.30;;
63346;SDS011;49472;49.880;8.650;2023-04-25T10:32:37;16.60;;;14.20;;
63346;SDS011;49472;49.880;8.650;2023-04-25T10:40:23;17.37;;;15.73;;
63346;SDS011;49472;49.880;8.650;2023-04-25T10:42:50;16.30;;;15.10;;
63346;SDS011;49472;49.880;8.650;2023-04-25T10:45:17;16.60;;;15.30;;
63346;SDS011;49472;49.880;8.650;2023-04-25T10:47:45;18.83;;;16.97;;
63346;SDS011;49472;49.880;8.650;2023-04-25T10:50:10;20.57;;;14.87;;
63346;SDS011;49472;49.880;8.650;2023-04-25T10:52:38;16.90;;;15.33;;
63346;SDS011;49472;49.880;8.650;2023-04-25T10:55:05;16.43;;;15.13;;
63346;SDS011;49472;49.880;8.650;2023-04-25T11:02:30;17.50;;;16.00;;
63346;SDS011;49472;49.880;8.650;2023-04-25T11:04:56;17.43;;;15.70;;
63346;SDS011;49472;49.880;8.650;2023-04-25T11:07:38;18.40;;;16.60;;
63346;SDS011;49472;49.880;8.650;2023-04-25T11:10:10;18.53;;;14.97;;
63346;SDS011;49472;49.880;8.650;2023-04-25T11:12:35;17.47;;;15.60;;
63346;SDS011;49472;49.880;8.650;2023-04-25T11:15:04;16.30;;;15.10;;
63346;SDS011;49472;49.880;8.650;2023-04-25T11:17:31;16.00;;;14.70;;
63346;SDS011;49472;49.880;8.650;2023-04-25T11:19:57;16.37;;;15.23;;
63346;SDS011;49472;49.880;8.650;2023-04-25T11:22:23;17.07;;;15.30;;
63346;SDS011;49472;49.880;8.650;2023-04-25T11:24:48;17.00;;;15.30;;
63346;SDS011;49472;49.880;8.650;2023-04-25T11:27:14;16.60;;;15.10;;
63346;SDS011;49472;49.880;8.650;2023-04-25T11:29:40;16.17;;;14.80;;
63346;SDS011;49472;49.880;8.650;2023-04-25T11:32:05;17.50;;;16.00;;
63346;SDS011;49472;49.880;8.650;2023-04-25T11:34:31;17.30;;;15.80;;
63346;SDS011;49472;49.880;8.650;2023-04-25T11:36:58;16.97;;;15.47;;
63346;SDS011;49472;49.880;8.650;2023-04-25T11:39:25;18.63;;;16.10;;
63346;SDS011;49472;49.880;8.650;2023-04-25T11:41:51;17.93;;;16.23;;
63346;SDS011;49472;49.880;8.650;2023-04-25T11:44:17;18.83;;;16.10;;
63346;SDS011;49472;49.880;8.650;2023-04-25T11:46:43;17.03;;;15.50;;
63346;SDS011;49472;49.880;8.650;2023-04-25T11:49:09;22.73;;;17.53;;
63346;SDS011;49472;49.880;8.650;2023-04-25T11:51:39;17.77;;;15.93;;
63346;SDS011;49472;49.880;8.650;2023-04-25T11:54:05;18.50;;;16.70;;
63346;SDS011;49472;49.880;8.650;2023-04-25T11:56:30;22.70;;;16.97;;
63346;SDS011;49472;49.880;8.650;2023-04-25T11:58:57;18.23;;;16.43;;
63346;SDS011;49472;49.880;8.650;2023-04-25T12:01:29;24.63;;;17.30;;
63346;SDS011;49472;49.880;8.650;2023-04-25T12:03:57;17.47;;;15.77;;
63346;SDS011;49472;49.880;8.650;2023-04-25T12:06:26;17.97;;;16.17;;
63346;SDS011;49472;49.880;8.650;2023-04-25T12:09:01;19.83;;;15.43;;
63346;SDS011;49472;49.880;8.650;2023-04-25T12:11:32;17.10;;;15.60;;
63346;SDS011;49472;49.880;8.650;2023-04-25T12:14:05;17.30;;;15.80;;
63346;SDS011;49472;49.880;8.650;2023-04-25T12:16:41;17.83;;;16.33;;
63346;SDS011;49472;49.880;8.650;2023-04-25T12:19:13;17.60;;;16.10;;
63346;SDS011;49472;49.880;8.650;2023-04-25T12:21:39;23.23;;;16.83;;
63346;SDS011;49472;49.880;8.650;2023-04-25T12:24:12;16.57;;;15.10;;
63346;SDS011;49472;49.880;8.650;2023-04-25T12:29:24;17.37;;;15.63;;
63346;SDS011;49472;49.880;8.650;2023-04-25T12:31:51;17.53;;;15.73;;
63346;SDS011;49472;49.880;8.650;2023-04-25T12:34:18;17.73;;;15.90;;
63346;SDS011;49472;49.880;8.650;2023-04-25T12:36:47;17.30;;;15.73;;
63346;SDS011;49472;49.880;8.650;2023-04-25T12:39:23;19.10;;;14.60;;
63346;SDS011;49472;49.880;8.650;2023-04-25T12:41:50;16.90;;;15.40;;
63346;SDS011;49472;49.880;8.650;2023-04-25T12:44:18;18.07;;;15.07;;
63346;SDS011;49472;49.880;8.650;2023-04-25T12:46:44;16.77;;;15.03;;
63346;SDS011;49472;49.880;8.650;2023-04-25T12:49:10;15.33;;;14.03;;
63346;SDS011;49472;49.880;8.650;2023-04-25T12:51:35;16.70;;;14.93;;
63346;SDS011;49472;49.880;8.650;2023-04-25T12:54:01;16.67;;;14.43;;
63346;SDS011;49472;49.880;8.650;2023-04-25T12:56:28;16.57;;;15.10;;
63346;SDS011;49472;49.880;8.650;2023-04-25T12:58:54;17.03;;;15.33;;
63346;SDS011;49472;49.880;8.650;2023-04-25T13:01:20;15.77;;;14.17;;
63346;SDS011;49472;49.880;8.650;2023-04-25T13:03:46;18.37;;;14.73;;
63346;SDS011;49472;49.880;8.650;2023-04-25T13:06:12;17.53;;;15.80;;
63346;SDS011;49472;49.880;8.650;2023-04-25T13:08:38;16.10;;;14.80;;
63346;SDS011;49472;49.880;8.650;2023-04-25T13:11:04;16.60;;;15.03;;
63346;SDS011;49472;49.880;8.650;2023-04-25T13:13:30;16.53;;;14.90;;
63346;SDS011;49472;49.880;8.650;2023-04-25T13:15:56;15.83;;;14.40;;
63346;SDS011;49472;49.880;8.650;2023-04-25T13:18:22;16.17;;;14.60;;
63346;SDS011;49472;49.880;8.650;2023-04-25T13:20:51;16.67;;;15.07;;
63346;SDS011;49472;49.880;8.650;2023-04-25T13:23:16;15.83;;;14.63;;
63346;SDS011;49472;49.880;8.650;2023-04-25T13:25:42;16.03;;;14.53;;
63346;SDS011;49472;49.880;8.650;2023-04-25T13:28:07;16.83;;;15.33;;
63346;SDS011;49472;49.880;8.650;2023-04-25T13:30:32;15.50;;;14.17;;
63346;SDS011;49472;49.880;8.650;2023-04-25T13:32:58;15.97;;;14.37;;
63346;SDS011;49472;49.880;8.650;2023-04-25T13:35:28;17.00;;;13.77;;
63346;SDS011;49472;49.880;8.650;2023-04-25T13:37:57;22.40;;;15.67;;
63346;SDS011;49472;49.880;8.650;2023-04-25T13:40:22;24.63;;;15.60;;
63346;SDS011;49472;49.880;8.650;2023-04-25T13:42:47;15.80;;;14.17;;
63346;SDS011;49472;49.880;8.650;2023-04-25T13:45:13;18.07;;;14.80;;
63346;SDS011;49472;49.880;8.650;2023-04-25T13:47:38;15.10;;;13.73;;
63346;SDS011;49472;49.880;8.650;2023-04-25T13:50:04;15.87;;;14.37;;
63346;SDS011;49472;49.880;8.650;2023-04-25T13:52:33;15.67;;;14.27;;
63346;SDS011;49472;49.880;8.650;2023-04-25T13:54:58;18.50;;;14.20;;
63346;SDS011;49472;49.880;8.650;2023-04-25T13:57:24;15.23;;;13.80;;
63346;SDS011;49472;49.880;8.650;2023-04-25T13:59:50;14.60;;;13.20;;
63346;SDS011;49472;49.880;8.650;2023-04-25T14:02:16;15.93;;;13.83;;
63346;SDS011;49472;49.880;8.650;2023-04-25T14:04:41;15.77;;;13.97;;
63346;SDS011;49472;49.880;8.650;2023-04-25T14:07:06;25.93;;;13.67;;
63346;SDS011;49472;49.880;8.650;2023-04-25T14:09:32;14.97;;;13.87;;
63346;SDS011;49472;49.880;8.650;2023-04-25T14:11:58;14.90;;;13.53;;
63346;SDS011;49472;49.880;8.650;2023-04-25T14:14:23;15.23;;;13.87;;
63346;SDS011;49472;49.880;8.650;2023-04-25T14:16:49;15.50;;;14.10;;
63346;SDS011;49472;49.880;8.650;2023-04-25T14:19:15;16.90;;;15.20;;
63346;SDS011;49472;49.880;8.650;2023-04-25T14:21:41;25.77;;;15.50;;
63346;SDS011;49472;49.880;8.650;2023-04-25T14:24:10;17.80;;;14.83;;
63346;SDS011;49472;49.880;8.650;2023-04-25T14:26:38;19.47;;;17.03;;
63346;SDS011;49472;49.880;8.650;2023-04-25T14:29:04;21.90;;;17.77;;
63346;SDS011;49472;49.880;8.650;2023-04-25T14:31:30;16.87;;;15.23;;